Time;durP1;ratioP1;P1;durP2;ratioP2;P2;SDS_P1;SDS_P2;PMS_P1;PMS_P2;Temp;Humidity;BMP_temperature;BMP_pressure;BME280_temperature;BME280_humidity;BME280_pressure;Samples;Min_cycle;Max_cycle;Signal;HPM_P1;HPM_P2
2022/01/11 00:01:15;;;;;;;55.35;21.65;;;;;;;;;;4972384;28;20181;-91
2022/01/11 00:03:42;;;;;;;43.95;22.88;;;;;;;;;;4965689;28;20301;-91
2022/01/11 00:08:44;;;;;;;68.22;22.85;;;;;;;;;;4983038;28;20257;-92
2022/01/11 00:11:10;;;;;;;83.05;24.95;;;;;;;;;;4951625;28;20189;-91
2022/01/11 00:13:38;;;;;;;63.28;19.83;;;;;;;;;;4956647;28;20189;-91
2022/01/11 00:16:05;;;;;;;70.75;18.60;;;;;;;;;;4959733;28;20233;-92
2022/01/11 00:18:31;;;;;;;125.10;21.95;;;;;;;;;;4961585;28;20233;-92
2022/01/11 00:20:57;;;;;;;152.63;23.75;;;;;;;;;;4954247;28;20186;-91
2022/01/11 00:25:51;;;;;;;30.23;17.27;;;;;;;;;;4978270;28;20193;-91
2022/01/11 00:28:18;;;;;;;51.05;19.10;;;;;;;;;;4975234;28;20190;-91
2022/01/11 00:30:46;;;;;;;88.72;20.13;;;;;;;;;;4985959;28;20190;-91
2022/01/11 00:33:17;;;;;;;66.03;20.48;;;;;;;;;;4975166;28;20190;-91
2022/01/11 00:35:44;;;;;;;51.45;19.02;;;;;;;;;;4960397;28;20636;-90
2022/01/11 00:38:18;;;;;;;32.38;19.15;;;;;;;;;;4956227;28;20210;-90
2022/01/11 00:40:47;;;;;;;54.83;18.88;;;;;;;;;;4960900;28;20178;-91
2022/01/11 00:43:15;;;;;;;53.58;19.48;;;;;;;;;;4963302;28;20198;-91
2022/01/11 00:45:41;;;;;;;39.03;18.38;;;;;;;;;;4957968;28;20523;-91
2022/01/11 00:48:07;;;;;;;42.92;20.30;;;;;;;;;;4964575;28;20350;-91
2022/01/11 00:50:36;;;;;;;37.45;20.13;;;;;;;;;;4947932;28;20206;-90
2022/01/11 00:53:02;;;;;;;50.15;19.77;;;;;;;;;;4971072;28;20373;-91
2022/01/11 00:55:28;;;;;;;31.83;16.60;;;;;;;;;;4986717;28;20217;-91
2022/01/11 00:57:54;;;;;;;31.38;16.13;;;;;;;;;;4981746;28;20340;-91
2022/01/11 01:00:20;;;;;;;34.78;18.02;;;;;;;;;;4960139;28;20233;-91
2022/01/11 01:02:46;;;;;;;28.52;17.83;;;;;;;;;;4978332;28;20193;-91
2022/01/11 01:05:12;;;;;;;45.93;18.60;;;;;;;;;;4976479;28;20189;-90
2022/01/11 01:07:38;;;;;;;31.92;18.17;;;;;;;;;;4971672;28;20445;-91
2022/01/11 01:10:14;;;;;;;86.63;19.70;;;;;;;;;;4971918;28;20205;-91
2022/01/11 01:12:40;;;;;;;58.35;18.67;;;;;;;;;;4972843;28;20608;-91
2022/01/11 01:15:07;;;;;;;75.60;20.67;;;;;;;;;;4975981;28;20627;-91
2022/01/11 01:17:33;;;;;;;41.70;20.80;;;;;;;;;;4980975;28;20487;-90
2022/01/11 01:20:00;;;;;;;29.63;15.85;;;;;;;;;;4976664;28;20245;-90
2022/01/11 01:22:26;;;;;;;34.00;16.52;;;;;;;;;;4976401;28;20657;-89
2022/01/11 01:24:54;;;;;;;24.20;15.63;;;;;;;;;;4967507;28;20174;-89
2022/01/11 01:27:20;;;;;;;55.05;17.15;;;;;;;;;;4980579;28;20177;-90
2022/01/11 01:29:46;;;;;;;25.98;15.75;;;;;;;;;;5000288;28;20273;-89
2022/01/11 01:32:12;;;;;;;58.05;18.13;;;;;;;;;;4966177;28;20204;-90
2022/01/11 01:34:39;;;;;;;53.08;18.23;;;;;;;;;;4957129;28;20288;-91
2022/01/11 01:37:07;;;;;;;47.50;17.20;;;;;;;;;;4970754;28;20590;-91
2022/01/11 01:39:33;;;;;;;42.58;16.65;;;;;;;;;;4962794;28;20210;-90
2022/01/11 01:42:01;;;;;;;41.55;17.92;;;;;;;;;;4995253;28;20198;-90
2022/01/11 01:44:35;;;;;;;30.58;17.23;;;;;;;;;;4962197;28;20175;-88
2022/01/11 01:47:01;;;;;;;119.18;20.83;;;;;;;;;;5000138;28;20565;-90
2022/01/11 01:49:28;;;;;;;38.33;16.00;;;;;;;;;;4957500;28;20272;-90
2022/01/11 01:51:54;;;;;;;31.25;15.43;;;;;;;;;;4975570;28;20347;-89
2022/01/11 01:54:23;;;;;;;95.20;20.85;;;;;;;;;;4969786;28;20206;-90
2022/01/11 01:56:49;;;;;;;69.28;20.15;;;;;;;;;;4976152;28;20228;-90
2022/01/11 01:59:16;;;;;;;110.78;22.08;;;;;;;;;;4968548;28;20186;-90
2022/01/11 02:01:47;;;;;;;140.73;20.80;;;;;;;;;;4966214;28;20431;-90
2022/01/11 02:04:13;;;;;;;107.40;21.08;;;;;;;;;;4978590;28;20170;-90
2022/01/11 02:06:39;;;;;;;70.38;18.85;;;;;;;;;;4961582;28;20173;-90
2022/01/11 02:09:05;;;;;;;75.45;22.33;;;;;;;;;;4985907;28;20248;-91
2022/01/11 02:11:32;;;;;;;55.63;18.75;;;;;;;;;;4961461;28;20193;-89
2022/01/11 02:13:58;;;;;;;71.72;18.52;;;;;;;;;;4982786;28;20182;-90
2022/01/11 02:16:25;;;;;;;63.65;19.23;;;;;;;;;;4977269;28;20572;-90
2022/01/11 02:18:51;;;;;;;77.97;20.70;;;;;;;;;;4955765;28;20190;-90
2022/01/11 02:21:17;;;;;;;51.85;16.42;;;;;;;;;;4965518;28;20193;-89
2022/01/11 02:23:43;;;;;;;47.60;15.45;;;;;;;;;;4953669;28;20202;-89
2022/01/11 02:26:09;;;;;;;47.97;15.65;;;;;;;;;;4980412;28;20701;-89
2022/01/11 02:28:37;;;;;;;29.55;13.60;;;;;;;;;;4970736;28;20198;-89
2022/01/11 02:31:07;;;;;;;21.17;10.35;;;;;;;;;;4969447;28;20193;-90
2022/01/11 02:33:43;;;;;;;34.53;13.05;;;;;;;;;;4963716;28;20186;-90
2022/01/11 02:36:11;;;;;;;21.73;12.50;;;;;;;;;;4977880;28;20229;-89
2022/01/11 02:38:37;;;;;;;19.73;13.50;;;;;;;;;;4978309;28;20220;-89
2022/01/11 02:41:04;;;;;;;21.88;13.55;;;;;;;;;;4989342;28;20189;-89
2022/01/11 02:43:30;;;;;;;18.77;13.23;;;;;;;;;;4981541;28;20189;-89
2022/01/11 02:45:58;;;;;;;18.10;12.80;;;;;;;;;;4973077;28;20181;-89
2022/01/11 02:48:24;;;;;;;22.27;13.43;;;;;;;;;;4979830;28;20794;-89
2022/01/11 02:50:50;;;;;;;18.20;12.85;;;;;;;;;;4978276;28;20208;-89
2022/01/11 02:53:17;;;;;;;14.93;11.02;;;;;;;;;;4993790;28;20186;-89
2022/01/11 02:55:44;;;;;;;16.25;11.90;;;;;;;;;;4968613;28;20312;-90
2022/01/11 02:58:10;;;;;;;24.00;15.55;;;;;;;;;;4970796;28;20228;-90
2022/01/11 03:00:38;;;;;;;22.85;14.23;;;;;;;;;;4978994;28;20581;-89
2022/01/11 03:03:12;;;;;;;23.10;14.73;;;;;;;;;;4970141;28;20193;-90
2022/01/11 03:05:38;;;;;;;32.35;17.48;;;;;;;;;;4975368;28;20239;-89
2022/01/11 03:08:04;;;;;;;23.73;13.82;;;;;;;;;;4968745;28;20232;-90
2022/01/11 03:10:33;;;;;;;21.98;12.85;;;;;;;;;;4975432;28;20581;-90
2022/01/11 03:13:03;;;;;;;23.10;14.35;;;;;;;;;;4973738;28;20675;-90
2022/01/11 03:15:29;;;;;;;30.70;15.07;;;;;;;;;;4973804;28;20181;-90
2022/01/11 03:17:55;;;;;;;22.53;14.73;;;;;;;;;;4984836;28;20494;-90
2022/01/11 03:20:21;;;;;;;24.77;17.10;;;;;;;;;;4962741;28;20940;-90
2022/01/11 03:22:47;;;;;;;23.45;14.80;;;;;;;;;;4988300;28;20208;-90
2022/01/11 03:25:13;;;;;;;27.80;16.03;;;;;;;;;;4969898;28;20280;-90
2022/01/11 03:27:42;;;;;;;26.85;15.43;;;;;;;;;;4987539;28;20411;-89
2022/01/11 03:30:09;;;;;;;27.52;13.52;;;;;;;;;;4985759;28;20186;-90
2022/01/11 03:32:35;;;;;;;24.10;14.40;;;;;;;;;;4974278;28;20186;-91
2022/01/11 03:35:01;;;;;;;29.47;17.67;;;;;;;;;;4982024;28;20185;-90
2022/01/11 03:37:27;;;;;;;28.60;16.45;;;;;;;;;;4964385;28;20533;-90
2022/01/11 03:39:53;;;;;;;29.00;15.65;;;;;;;;;;4972490;28;20178;-89
2022/01/11 03:42:20;;;;;;;32.53;15.95;;;;;;;;;;4969227;28;20189;-90
2022/01/11 03:44:46;;;;;;;32.95;17.58;;;;;;;;;;4957816;28;20186;-90
2022/01/11 03:47:12;;;;;;;21.87;15.93;;;;;;;;;;4962393;28;20558;-89
2022/01/11 03:49:38;;;;;;;31.87;16.90;;;;;;;;;;4954707;28;20431;-90
2022/01/11 03:52:04;;;;;;;36.67;18.70;;;;;;;;;;4971764;28;21098;-90
2022/01/11 03:54:43;;;;;;;45.22;19.90;;;;;;;;;;4991805;28;20420;-90
2022/01/11 03:57:10;;;;;;;46.50;18.15;;;;;;;;;;4969724;28;20208;-89
2022/01/11 03:59:36;;;;;;;38.55;19.15;;;;;;;;;;4980803;28;20174;-89
2022/01/11 04:02:02;;;;;;;40.58;21.25;;;;;;;;;;4973606;28;20212;-90
2022/01/11 04:04:29;;;;;;;32.55;16.80;;;;;;;;;;4959465;28;20333;-89
2022/01/11 04:06:56;;;;;;;32.10;16.73;;;;;;;;;;4966425;28;20193;-89
2022/01/11 04:09:22;;;;;;;27.77;16.08;;;;;;;;;;4944760;29;20772;-89
2022/01/11 04:11:48;;;;;;;30.80;15.65;;;;;;;;;;4977566;28;20444;-89
2022/01/11 04:14:14;;;;;;;33.57;17.90;;;;;;;;;;4962531;28;20430;-90
2022/01/11 04:16:40;;;;;;;34.10;16.67;;;;;;;;;;4983776;28;20550;-88
2022/01/11 04:19:06;;;;;;;24.60;14.27;;;;;;;;;;4947366;28;20408;-89
2022/01/11 04:21:58;;;;;;;43.20;16.83;;;;;;;;;;4950553;28;20941;-91
2022/01/11 04:24:56;;;;;;;;;;;;;;;;;;;;;
2022/01/11 04:27:28;;;;;;;38.38;17.92;;;;;;;;;;4986893;28;20209;-91
2022/01/11 04:29:56;;;;;;;35.42;16.40;;;;;;;;;;4961504;28;20432;-89
2022/01/11 04:32:24;;;;;;;30.02;16.98;;;;;;;;;;4984647;28;20190;-90
2022/01/11 04:34:50;;;;;;;29.20;14.98;;;;;;;;;;4959583;28;20191;-90
2022/01/11 04:37:16;;;;;;;23.95;14.00;;;;;;;;;;4965535;28;20225;-91
2022/01/11 04:39:42;;;;;;;25.33;14.13;;;;;;;;;;4974625;28;20644;-90
2022/01/11 04:42:08;;;;;;;36.72;16.75;;;;;;;;;;4955501;28;20435;-90
2022/01/11 04:44:34;;;;;;;26.90;12.73;;;;;;;;;;4961117;28;20281;-90
2022/01/11 04:47:01;;;;;;;23.50;12.07;;;;;;;;;;4976691;28;20197;-89
2022/01/11 04:49:27;;;;;;;27.90;13.52;;;;;;;;;;4995405;28;20675;-90
2022/01/11 04:51:54;;;;;;;26.80;14.55;;;;;;;;;;4987762;28;20197;-89
2022/01/11 04:54:20;;;;;;;22.65;13.27;;;;;;;;;;4988725;28;20335;-89
2022/01/11 04:56:46;;;;;;;29.95;12.75;;;;;;;;;;4966006;28;20284;-89
2022/01/11 04:59:12;;;;;;;29.90;15.07;;;;;;;;;;4976978;28;20263;-88
2022/01/11 05:01:40;;;;;;;25.80;13.93;;;;;;;;;;4968128;28;20769;-89
2022/01/11 05:04:06;;;;;;;24.40;15.20;;;;;;;;;;4980967;28;20435;-89
2022/01/11 05:06:32;;;;;;;27.80;14.50;;;;;;;;;;4970159;28;20193;-91
2022/01/11 05:08:58;;;;;;;25.20;14.50;;;;;;;;;;4957953;28;20181;-90
2022/01/11 05:11:27;;;;;;;43.22;19.05;;;;;;;;;;4965623;28;20194;-86
2022/01/11 05:13:53;;;;;;;50.75;22.55;;;;;;;;;;4974761;28;20188;-89
2022/01/11 05:16:19;;;;;;;33.22;13.60;;;;;;;;;;4955369;28;20582;-89
2022/01/11 05:18:45;;;;;;;30.00;13.57;;;;;;;;;;4969801;28;20582;-88
2022/01/11 05:21:11;;;;;;;33.88;15.00;;;;;;;;;;4959199;28;20626;-89
2022/01/11 05:23:39;;;;;;;26.77;16.10;;;;;;;;;;4982859;28;20204;-91
2022/01/11 05:26:05;;;;;;;32.50;13.38;;;;;;;;;;4977649;28;20649;-88
2022/01/11 05:28:31;;;;;;;31.92;14.88;;;;;;;;;;4963925;28;20206;-90
2022/01/11 05:30:57;;;;;;;26.67;12.60;;;;;;;;;;4978589;28;20196;-89
2022/01/11 05:33:23;;;;;;;21.10;13.23;;;;;;;;;;4989373;28;20178;-90
2022/01/11 05:35:49;;;;;;;28.23;14.80;;;;;;;;;;4993688;28;20185;-91
2022/01/11 05:38:15;;;;;;;26.80;13.20;;;;;;;;;;4962471;28;20214;-90
2022/01/11 05:40:41;;;;;;;36.95;16.38;;;;;;;;;;4961078;28;20209;-90
2022/01/11 05:43:07;;;;;;;29.33;13.40;;;;;;;;;;4978472;28;20217;-90
2022/01/11 05:45:34;;;;;;;29.02;15.07;;;;;;;;;;4988131;28;20220;-88
2022/01/11 05:48:02;;;;;;;33.80;14.50;;;;;;;;;;4979596;28;20199;-90
2022/01/11 05:50:28;;;;;;;34.53;16.08;;;;;;;;;;4958252;28;20198;-89
2022/01/11 05:52:54;;;;;;;33.13;16.85;;;;;;;;;;4994238;28;20203;-90
2022/01/11 05:55:21;;;;;;;28.13;14.73;;;;;;;;;;4967223;28;20308;-90
2022/01/11 05:58:09;;;;;;;37.88;16.77;;;;;;;;;;4992859;28;20209;-78
2022/01/11 06:00:35;;;;;;;33.28;15.43;;;;;;;;;;4959554;28;20293;-90
2022/01/11 06:03:02;;;;;;;38.53;15.82;;;;;;;;;;4974021;28;20687;-88
2022/01/11 06:05:28;;;;;;;35.25;15.95;;;;;;;;;;4978850;28;20186;-91
2022/01/11 06:07:54;;;;;;;29.45;15.30;;;;;;;;;;4990333;28;20566;-90
2022/01/11 06:10:20;;;;;;;23.02;11.43;;;;;;;;;;4980968;28;20280;-90
2022/01/11 06:12:46;;;;;;;22.70;12.30;;;;;;;;;;5002668;28;20191;-89
2022/01/11 06:15:12;;;;;;;33.05;14.23;;;;;;;;;;4961324;28;20217;-89
2022/01/11 06:17:38;;;;;;;33.08;14.70;;;;;;;;;;4969647;28;20213;-90
2022/01/11 06:20:05;;;;;;;28.15;13.77;;;;;;;;;;4970730;28;20613;-89
2022/01/11 06:22:32;;;;;;;25.20;11.63;;;;;;;;;;4249386;28;10000720;-90
2022/01/11 06:25:03;;;;;;;25.45;13.63;;;;;;;;;;4996640;28;20331;-88
2022/01/11 06:27:29;;;;;;;27.20;12.68;;;;;;;;;;4958351;28;20198;-90
2022/01/11 06:29:55;;;;;;;31.07;14.80;;;;;;;;;;4996599;28;20185;-89
2022/01/11 06:32:21;;;;;;;26.63;15.13;;;;;;;;;;4962613;28;20437;-90
2022/01/11 06:34:47;;;;;;;29.40;14.10;;;;;;;;;;4983154;28;20284;-89
2022/01/11 06:37:13;;;;;;;27.17;13.23;;;;;;;;;;4981371;28;20460;-88
2022/01/11 06:39:40;;;;;;;33.22;15.23;;;;;;;;;;4981609;28;20193;-89
2022/01/11 06:42:07;;;;;;;29.55;14.90;;;;;;;;;;4969050;28;20219;-90
2022/01/11 06:44:34;;;;;;;32.85;16.35;;;;;;;;;;4965810;28;20205;-89
2022/01/11 06:47:09;;;;;;;32.53;14.48;;;;;;;;;;4960627;28;20196;-89
2022/01/11 06:49:46;;;;;;;24.98;13.15;;;;;;;;;;4974101;28;20197;-88
2022/01/11 06:52:12;;;;;;;40.60;17.02;;;;;;;;;;4954416;28;20209;-89
2022/01/11 06:54:38;;;;;;;24.80;12.67;;;;;;;;;;4978199;28;20197;-88
2022/01/11 06:57:04;;;;;;;38.10;14.35;;;;;;;;;;4983977;28;20853;-89
2022/01/11 06:59:30;;;;;;;35.40;15.80;;;;;;;;;;4969621;28;20265;-89
2022/01/11 07:01:56;;;;;;;26.02;13.65;;;;;;;;;;4959461;28;20533;-89
2022/01/11 07:04:22;;;;;;;26.70;12.70;;;;;;;;;;4977600;28;20207;-89
2022/01/11 07:06:51;;;;;;;34.50;14.23;;;;;;;;;;4958605;28;20571;-90
2022/01/11 07:09:17;;;;;;;28.38;14.48;;;;;;;;;;4966012;28;20437;-89
2022/01/11 07:11:43;;;;;;;26.33;14.30;;;;;;;;;;4969011;28;20224;-90
2022/01/11 07:14:09;;;;;;;26.87;11.70;;;;;;;;;;4969461;28;20354;-88
2022/01/11 07:16:35;;;;;;;27.73;12.70;;;;;;;;;;4972307;28;20977;-88
2022/01/11 07:19:03;;;;;;;27.60;14.95;;;;;;;;;;4975769;28;20186;-89
2022/01/11 07:21:29;;;;;;;28.02;13.95;;;;;;;;;;4974601;28;20232;-93
2022/01/11 07:23:55;;;;;;;30.52;16.73;;;;;;;;;;4985707;28;20197;-93
2022/01/11 07:26:21;;;;;;;40.35;17.40;;;;;;;;;;4967835;28;20198;-89
2022/01/11 07:28:47;;;;;;;30.98;14.82;;;;;;;;;;4968222;28;20490;-92
2022/01/11 07:31:19;;;;;;;29.35;15.20;;;;;;;;;;4992742;28;20194;-92
2022/01/11 07:33:45;;;;;;;39.13;17.58;;;;;;;;;;4970407;28;20762;-89
2022/01/11 07:36:13;;;;;;;39.03;18.23;;;;;;;;;;4961271;28;20202;-93
2022/01/11 07:38:39;;;;;;;42.25;20.38;;;;;;;;;;4978187;28;20844;-85
2022/01/11 07:41:08;;;;;;;47.37;24.13;;;;;;;;;;4973267;28;20244;-91
2022/01/11 07:43:34;;;;;;;45.15;21.63;;;;;;;;;;4972403;28;20441;-93
2022/01/11 07:46:03;;;;;;;39.17;20.92;;;;;;;;;;4967071;28;20249;-93
2022/01/11 07:48:29;;;;;;;38.55;18.67;;;;;;;;;;4960461;28;20202;-92
2022/01/11 07:50:56;;;;;;;47.35;21.90;;;;;;;;;;4963939;28;20505;-94
2022/01/11 07:53:22;;;;;;;55.78;25.73;;;;;;;;;;4973345;28;20650;-89
2022/01/11 07:55:48;;;;;;;36.67;18.35;;;;;;;;;;4972159;28;20241;-92
2022/01/11 07:58:14;;;;;;;45.53;21.70;;;;;;;;;;5003067;28;20209;-92
2022/01/11 08:00:49;;;;;;;43.13;22.00;;;;;;;;;;4963355;28;20240;-91
2022/01/11 08:03:18;;;;;;;23.38;14.27;;;;;;;;;;4980333;28;20192;-92
2022/01/11 08:05:44;;;;;;;30.02;14.65;;;;;;;;;;4980711;28;20190;-91
2022/01/11 08:08:10;;;;;;;31.65;14.63;;;;;;;;;;4988520;28;20249;-93
2022/01/11 08:10:36;;;;;;;32.50;16.27;;;;;;;;;;4984009;28;20198;-91
2022/01/11 08:13:06;;;;;;;30.15;17.20;;;;;;;;;;4974843;28;20201;-92
2022/01/11 08:15:32;;;;;;;30.05;16.00;;;;;;;;;;4966394;28;20551;-90
2022/01/11 08:17:58;;;;;;;33.80;18.25;;;;;;;;;;4986899;28;20217;-92
2022/01/11 08:20:25;;;;;;;31.42;14.93;;;;;;;;;;4975971;28;20188;-92
2022/01/11 08:22:53;;;;;;;29.35;16.00;;;;;;;;;;4969994;28;20208;-88
2022/01/11 08:25:22;;;;;;;38.60;17.30;;;;;;;;;;4983810;28;20320;-92
2022/01/11 08:27:48;;;;;;;31.27;15.02;;;;;;;;;;4984182;28;20205;-90
2022/01/11 08:30:14;;;;;;;25.52;11.95;;;;;;;;;;4968467;28;20187;-93
2022/01/11 08:32:40;;;;;;;27.30;14.98;;;;;;;;;;4987078;28;20264;-92
2022/01/11 08:35:06;;;;;;;28.07;14.93;;;;;;;;;;4975346;28;20181;-92
2022/01/11 08:37:33;;;;;;;25.88;13.60;;;;;;;;;;4669188;28;10000559;-92
2022/01/11 08:39:59;;;;;;;30.17;15.50;;;;;;;;;;4988760;28;20386;-93
2022/01/11 08:42:27;;;;;;;23.35;12.75;;;;;;;;;;4994168;28;20190;-92
2022/01/11 08:44:54;;;;;;;25.17;14.75;;;;;;;;;;4990583;28;20200;-90
2022/01/11 08:47:20;;;;;;;28.75;14.68;;;;;;;;;;4981061;28;20584;-91
2022/01/11 08:49:47;;;;;;;23.65;14.38;;;;;;;;;;4989095;28;20206;-82
2022/01/11 08:52:14;;;;;;;18.67;11.75;;;;;;;;;;4984760;28;20174;-86
2022/01/11 08:54:40;;;;;;;26.95;12.55;;;;;;;;;;4986580;28;20205;-90
2022/01/11 08:57:07;;;;;;;24.55;13.32;;;;;;;;;;4968142;28;20735;-92
2022/01/11 08:59:33;;;;;;;25.42;14.55;;;;;;;;;;4979742;28;20310;-93
2022/01/11 09:02:11;;;;;;;23.40;13.05;;;;;;;;;;4976548;28;20198;-90
2022/01/11 09:04:37;;;;;;;38.55;14.07;;;;;;;;;;4969959;29;20211;-91
2022/01/11 09:07:08;;;;;;;27.92;13.18;;;;;;;;;;4978054;28;20301;-91
2022/01/11 09:09:34;;;;;;;25.73;13.20;;;;;;;;;;4971460;28;20312;-90
2022/01/11 09:12:03;;;;;;;22.13;12.07;;;;;;;;;;5003173;28;20667;-91
2022/01/11 09:14:33;;;;;;;24.50;14.10;;;;;;;;;;5007249;28;20185;-88
2022/01/11 09:17:02;;;;;;;26.10;12.35;;;;;;;;;;4995278;28;20224;-91
2022/01/11 09:19:29;;;;;;;26.27;13.63;;;;;;;;;;4971440;28;20314;-91
2022/01/11 09:21:55;;;;;;;27.50;14.20;;;;;;;;;;4985691;28;20261;-91
2022/01/11 09:24:24;;;;;;;25.23;15.00;;;;;;;;;;4991432;28;20197;-91
2022/01/11 09:26:55;;;;;;;27.73;15.65;;;;;;;;;;4989493;28;20172;-92
2022/01/11 09:29:21;;;;;;;24.95;14.13;;;;;;;;;;4990858;28;20173;-87
2022/01/11 09:31:47;;;;;;;18.97;13.90;;;;;;;;;;4994171;28;20184;-86
2022/01/11 09:34:18;;;;;;;25.33;12.73;;;;;;;;;;5009083;28;20424;-85
2022/01/11 09:36:45;;;;;;;20.05;12.93;;;;;;;;;;4971947;28;20218;-90
2022/01/11 09:39:11;;;;;;;25.40;12.50;;;;;;;;;;4983936;28;20204;-89
2022/01/11 09:41:37;;;;;;;12.77;9.25;;;;;;;;;;4960450;28;20186;-92
2022/01/11 09:44:03;;;;;;;11.65;9.45;;;;;;;;;;4992033;28;20193;-86
2022/01/11 09:46:29;;;;;;;16.25;9.73;;;;;;;;;;4977800;28;20159;-91
2022/01/11 09:48:59;;;;;;;10.48;9.15;;;;;;;;;;4995460;28;20162;-92
2022/01/11 09:51:25;;;;;;;16.00;9.40;;;;;;;;;;5012785;28;20192;-93
2022/01/11 09:53:51;;;;;;;11.10;9.77;;;;;;;;;;4985030;28;20201;-89
2022/01/11 09:56:17;;;;;;;10.83;8.83;;;;;;;;;;5003571;28;20225;-91
2022/01/11 09:58:44;;;;;;;12.57;10.60;;;;;;;;;;4985171;28;20527;-90
2022/01/11 10:01:10;;;;;;;11.60;10.40;;;;;;;;;;4985316;28;20441;-92
2022/01/11 10:03:57;;;;;;;11.70;9.90;;;;;;;;;;4976866;28;20513;-92
2022/01/11 10:06:32;;;;;;;12.35;9.43;;;;;;;;;;4825092;28;10000647;-93
2022/01/11 10:09:08;;;;;;;12.57;11.03;;;;;;;;;;4978142;28;20226;-92
2022/01/11 10:11:35;;;;;;;11.00;9.87;;;;;;;;;;4978337;28;20782;-89
2022/01/11 10:14:16;;;;;;;15.50;9.40;;;;;;;;;;4976920;28;20433;-89
2022/01/11 10:16:43;;;;;;;10.30;9.30;;;;;;;;;;4965419;28;20476;-88
2022/01/11 10:19:29;;;;;;;11.27;9.40;;;;;;;;;;4957778;28;20445;-89
2022/01/11 10:22:42;;;;;;;11.10;10.00;;;;;;;;;;4967559;28;20425;-89
2022/01/11 10:25:49;;;;;;;12.07;10.47;;;;;;;;;;4970007;28;20543;-87
2022/01/11 10:28:55;;;;;;;12.73;11.07;;;;;;;;;;4966151;28;20483;-89
2022/01/11 10:32:00;;;;;;;11.95;10.50;;;;;;;;;;4978063;28;20648;-89
2022/01/11 10:35:06;;;;;;;16.50;9.87;;;;;;;;;;4972661;28;20197;-90
2022/01/11 10:38:11;;;;;;;16.35;10.38;;;;;;;;;;4968997;28;20539;-89
2022/01/11 10:41:19;;;;;;;16.13;10.38;;;;;;;;;;4986585;28;20221;-90
2022/01/11 10:44:25;;;;;;;16.30;11.23;;;;;;;;;;4970592;28;20238;-89
2022/01/11 10:47:30;;;;;;;11.35;9.48;;;;;;;;;;4981145;28;20575;-88
2022/01/11 10:50:42;;;;;;;12.10;10.00;;;;;;;;;;4987316;28;20206;-91
2022/01/11 10:53:49;;;;;;;15.83;9.77;;;;;;;;;;4985104;28;20645;-85
2022/01/11 10:57:04;;;;;;;12.82;9.57;;;;;;;;;;4997189;28;20476;-88
2022/01/11 11:00:10;;;;;;;13.30;10.05;;;;;;;;;;4980874;28;20225;-90
2022/01/11 11:03:16;;;;;;;10.35;9.05;;;;;;;;;;4983856;28;20197;-91
2022/01/11 11:06:23;;;;;;;14.85;9.10;;;;;;;;;;4992613;28;20194;-95
2022/01/11 11:09:17;;;;;;;13.13;10.13;;;;;;;;;;5015192;23;20297;-87
2022/01/11 11:12:03;;;;;;;21.23;10.20;;;;;;;;;;5022335;28;20938;-90
2022/01/11 11:14:49;;;;;;;11.83;9.80;;;;;;;;;;5014804;28;20454;-90
2022/01/11 11:17:31;;;;;;;12.37;9.70;;;;;;;;;;5032804;28;20597;-89
2022/01/11 11:20:01;;;;;;;12.80;10.80;;;;;;;;;;5022385;28;20879;-90
2022/01/11 11:22:30;;;;;;;10.60;9.10;;;;;;;;;;5028501;28;20430;-89
2022/01/11 11:24:56;;;;;;;10.43;9.40;;;;;;;;;;5027719;28;20411;-86
2022/01/11 11:27:24;;;;;;;12.00;9.93;;;;;;;;;;5029435;28;20431;-84
2022/01/11 11:29:51;;;;;;;17.67;10.00;;;15.30;92.00;;;;;;5021859;28;20430;-87
2022/01/11 11:32:18;;;;;;;13.07;10.73;;;15.40;97.60;;;;;;5029248;28;20434;-85
2022/01/11 11:34:53;;;;;;;14.17;10.37;;;;;;;;;;5018195;28;20442;-88
2022/01/11 11:37:34;;;;;;;17.60;12.20;;;16.20;77.40;;;;;;5029576;28;20604;-89
2022/01/11 11:40:15;;;;;;;15.20;10.63;;;16.20;76.80;;;;;;5028655;28;20434;-86
2022/01/11 11:42:42;;;;;;;18.53;10.43;;;17.60;76.80;;;;;;5031799;28;20425;-87
2022/01/11 11:45:17;;;;;;;14.70;10.37;;;17.10;73.40;;;;;;5029242;28;20435;-87
2022/01/11 11:47:44;;;;;;;11.93;10.73;;;17.00;70.90;;;;;;5025103;28;20429;-89
2022/01/11 11:50:16;;;;;;;12.47;9.80;;;16.70;67.80;;;;;;5017120;28;20439;-88
2022/01/11 11:52:45;;;;;;;12.50;11.30;;;17.40;63.70;;;;;;5035862;28;20994;-88
2022/01/11 11:55:20;;;;;;;15.27;11.93;;;17.50;64.10;;;;;;5049283;28;20749;-88
2022/01/11 11:57:52;;;;;;;18.33;11.03;;;17.40;60.90;;;;;;5058383;28;20490;-85
2022/01/11 12:00:22;;;;;;;14.20;11.30;;;17.20;58.40;;;;;;5035907;28;20480;-87
2022/01/11 12:03:19;;;;;;;14.10;10.80;;;17.80;58.40;;;;;;5018188;28;20427;-89
2022/01/11 12:05:48;;;;;;;13.60;12.20;;;17.30;61.60;;;;;;5037213;28;20425;-82
2022/01/11 12:08:41;;;;;;;11.73;10.63;;;17.30;88.40;;;;;;5017116;28;21059;-85
2022/01/11 12:11:16;;;;;;;11.60;10.57;;;17.40;58.90;;;;;;5042736;28;20484;-89
2022/01/11 12:14:29;;;;;;;11.97;10.97;;;17.30;58.20;;;;;;5038075;28;20416;-88
2022/01/11 12:17:17;;;;;;;10.80;9.70;;;17.30;61.10;;;;;;5038134;28;20468;-89
2022/01/11 12:19:53;;;;;;;12.97;10.67;;;17.50;60.00;;;;;;5039088;28;20444;-87
2022/01/11 12:22:32;;;;;;;12.73;11.37;;;18.40;57.70;;;;;;5039707;28;20764;-90
2022/01/11 12:25:24;;;;;;;10.40;9.57;;;17.50;59.40;;;;;;5035857;28;20400;-89
2022/01/11 12:28:03;;;;;;;12.17;11.07;;;17.60;80.30;;;;;;5058493;28;20418;-84
2022/01/11 12:30:32;;;;;;;11.30;10.40;;;17.50;58.90;;;;;;5028567;28;20425;-83
2022/01/11 12:33:31;;;;;;;11.77;10.57;;;19.30;61.20;;;;;;5047773;28;20832;-85
2022/01/11 12:36:03;;;;;;;13.00;11.70;;;17.40;57.30;;;;;;5016885;28;20433;-88
2022/01/11 12:38:37;;;;;;;15.03;10.30;;;20.20;62.50;;;;;;5020733;28;20990;-85
2022/01/11 12:41:29;;;;;;;11.97;10.67;;;17.20;59.80;;;;;;5050985;28;20418;-86
2022/01/11 12:44:14;;;;;;;12.57;11.27;;;17.20;57.10;;;;;;5025236;28;20443;-86
2022/01/11 12:47:02;;;;;;;12.87;11.00;;;17.10;59.90;;;;;;5044299;28;20476;-85
2022/01/11 12:49:29;;;;;;;10.80;9.80;;;18.10;59.90;;;;;;5027852;28;20430;-86
2022/01/11 12:52:29;;;;;;;14.40;10.67;;;17.90;60.60;;;;;;5032163;28;20452;-85
2022/01/11 12:54:49;;;;;;;11.97;10.77;;;;;;;;;;5037551;28;20447;-85
2022/01/11 12:57:22;;;;;;;12.13;11.03;;;16.00;65.90;;;;;;5053244;28;20967;-87
2022/01/11 13:00:01;;;;;;;12.43;11.20;;;16.70;61.60;;;;;;5040385;28;20435;-86
2022/01/11 13:02:29;;;;;;;11.87;10.27;;;16.70;60.90;;;;;;5030741;28;20492;-86
2022/01/11 13:05:21;;;;;;;14.43;11.33;;;16.60;61.10;;;;;;5048801;28;20516;-86
2022/01/11 13:07:50;;;;;;;15.30;12.50;;;16.70;63.00;;;;;;5031172;28;20445;-86
2022/01/11 13:10:19;;;;;;;12.80;10.50;;;16.30;89.80;;;;;;5048162;28;20477;-86
2022/01/11 13:13:05;;;;;;;11.27;10.17;;;16.20;59.10;;;;;;5038460;28;20423;-85
2022/01/11 13:15:37;;;;;;;10.60;9.70;;;;;;;;;;5040094;28;20419;-88
2022/01/11 13:18:08;;;;;;;11.37;10.27;;;;;;;;;;5016945;28;20485;-85
2022/01/11 13:20:39;;;;;;;12.80;9.90;;;14.90;90.10;;;;;;5044472;23;20493;-78
2022/01/11 13:23:29;;;;;;;12.20;8.07;;;15.00;86.80;;;;;;4987856;28;20439;-81
2022/01/11 13:25:58;;;;;;;8.67;7.90;;;15.50;87.80;;;;;;4976034;28;20519;-85
2022/01/11 13:28:34;;;;;;;8.40;7.70;;;;;;;;;;4986163;28;20432;-85
2022/01/11 13:31:08;;;;;;;11.93;9.33;;;14.10;80.40;;;;;;4987365;28;20428;-82
2022/01/11 13:34:10;;;;;;;;;;;;;;;;;;;;;
2022/01/11 13:36:51;;;;;;;10.40;9.23;;;12.10;99.90;;;;;;5031040;23;20578;-82
2022/01/11 13:39:28;;;;;;;11.83;9.37;;;12.20;99.90;;;;;;4990937;28;20426;-86
2022/01/11 13:41:56;;;;;;;10.80;9.43;;;12.20;99.90;;;;;;4989072;28;20451;-86
2022/01/11 13:44:24;;;;;;;12.00;9.20;;;12.10;99.90;;;;;;5008773;28;20451;-86
2022/01/11 13:46:55;;;;;;;10.50;9.10;;;12.20;99.90;;;;;;5011128;28;20427;-87
2022/01/11 13:49:27;;;;;;;10.73;9.30;;;12.60;99.90;;;;;;4980013;28;20949;-85
2022/01/11 13:51:58;;;;;;;14.03;8.00;;;12.50;99.90;;;;;;4988324;28;20534;-88
2022/01/11 13:54:55;;;;;;;9.93;8.27;;;12.60;99.90;;;;;;5001314;28;20490;-86
2022/01/11 13:57:30;;;;;;;9.60;8.70;;;12.20;99.90;;;;;;4990849;28;20603;-87
2022/01/11 14:00:19;;;;;;;11.78;9.40;;;12.00;99.90;;;;;;4926570;28;10000960;-84
2022/01/11 14:02:53;;;;;;;11.32;8.77;;;12.00;99.90;;;;;;4652151;28;10000911;-85
2022/01/11 14:05:19;;;;;;;9.23;7.90;;;11.90;99.90;;;;;;5004469;28;20328;-81
2022/01/11 14:07:58;;;;;;;9.53;8.00;;;11.40;99.90;;;;;;4996429;28;20474;-87
2022/01/11 14:10:35;;;;;;;11.40;7.90;;;11.30;99.90;;;;;;5015858;28;20433;-80
2022/01/11 14:13:07;;;;;;;10.10;9.10;;;10.50;99.90;;;;;;4988405;28;20486;-83
2022/01/11 14:15:39;;;;;;;9.97;7.80;;;10.50;99.90;;;;;;5018201;28;20426;-92
2022/01/11 14:18:22;;;;;;;9.00;8.20;;;9.90;99.90;;;;;;5005952;28;20474;-92
2022/01/11 14:21:02;;;;;;;110.53;67.93;;;9.60;99.90;;;;;;4996381;28;20435;-90
2022/01/11 14:23:34;;;;;;;11.20;7.80;;;9.80;99.90;;;;;;4988194;28;20427;-90
2022/01/11 14:26:11;;;;;;;9.87;8.23;;;9.30;99.90;;;;;;5004723;28;20331;-85
2022/01/11 14:28:40;;;;;;;10.95;7.93;;;9.20;99.90;;;;;;5029985;28;20455;-89